createdAt,value
2023-05-19T00:00:12.393Z,13.33
2023-05-19T00:01:12.422Z,13.32
2023-05-19T00:02:12.564Z,13.31
2023-05-19T00:03:12.614Z,13.35
2023-05-19T00:04:12.571Z,13.38
2023-05-19T00:05:12.613Z,13.42
2023-05-19T00:06:12.688Z,13.42
2023-05-19T00:07:12.669Z,13.41
2023-05-19T00:08:12.671Z,13.43
2023-05-19T00:09:12.748Z,13.34
2023-05-19T00:10:12.707Z,13.26
2023-05-19T00:11:12.749Z,13.26
2023-05-19T00:12:12.763Z,13.30
2023-05-19T00:13:12.781Z,13.34
2023-05-19T00:14:12.821Z,13.30
2023-05-19T00:15:12.806Z,13.30
2023-05-19T00:16:12.888Z,13.28
2023-05-19T00:17:12.900Z,13.27
2023-05-19T00:18:12.923Z,13.17
2023-05-19T00:19:12.949Z,13.06
2023-05-19T00:20:12.956Z,12.98
2023-05-19T00:21:12.976Z,12.84
2023-05-19T00:22:13.073Z,12.85
2023-05-19T00:23:13.143Z,12.84
2023-05-19T00:24:13.171Z,12.89
2023-05-19T00:25:13.191Z,12.97
2023-05-19T00:26:13.240Z,12.92
2023-05-19T00:27:13.332Z,12.89
2023-05-19T00:28:13.300Z,12.88
2023-05-19T00:29:13.402Z,12.93
2023-05-19T00:30:13.359Z,12.97
2023-05-19T00:31:13.419Z,12.88
2023-05-19T00:32:13.518Z,12.78
2023-05-19T00:33:13.426Z,12.76
2023-05-19T00:34:13.420Z,12.84
2023-05-19T00:35:13.484Z,12.88
2023-05-19T00:36:13.486Z,12.86
2023-05-19T00:37:13.495Z,12.91
2023-05-19T00:38:13.493Z,12.98
2023-05-19T00:39:13.511Z,12.94
2023-05-19T00:40:13.526Z,12.94
2023-05-19T00:41:13.511Z,12.97
2023-05-19T00:42:13.556Z,13.03
2023-05-19T00:43:13.587Z,13.07
2023-05-19T00:44:13.624Z,13.08
2023-05-19T00:45:13.691Z,12.99
2023-05-19T00:46:13.692Z,12.93
2023-05-19T00:47:13.670Z,12.94
2023-05-19T00:48:13.674Z,12.99
2023-05-19T00:49:13.673Z,13.04
2023-05-19T00:50:13.737Z,13.08
2023-05-19T00:51:13.775Z,13.03
2023-05-19T00:52:13.758Z,13.01
2023-05-19T00:53:13.792Z,12.86
2023-05-19T00:54:13.787Z,12.71
2023-05-19T00:55:13.815Z,12.75
2023-05-19T00:56:13.833Z,12.71
2023-05-19T00:57:13.864Z,12.71
2023-05-19T00:58:13.843Z,12.72
2023-05-19T00:59:13.876Z,12.81
2023-05-19T01:00:13.906Z,12.77
2023-05-19T01:01:13.970Z,12.70
2023-05-19T01:02:13.956Z,12.68
2023-05-19T01:03:14.118Z,12.71
2023-05-19T01:04:14.010Z,12.76
2023-05-19T01:05:14.058Z,12.73
2023-05-19T01:06:14.058Z,12.72
2023-05-19T01:07:14.108Z,12.72
2023-05-19T01:08:14.153Z,12.74
2023-05-19T01:09:14.102Z,12.70
2023-05-19T01:10:14.162Z,12.72
2023-05-19T01:11:14.156Z,12.67
2023-05-19T01:12:14.210Z,12.61
2023-05-19T01:13:14.299Z,12.66
2023-05-19T01:14:14.291Z,12.59
2023-05-19T01:15:14.294Z,12.52
2023-05-19T01:16:14.341Z,12.39
2023-05-19T01:17:14.306Z,12.37
2023-05-19T01:18:14.367Z,12.26
2023-05-19T01:19:14.375Z,12.27
2023-05-19T01:20:14.354Z,12.36
2023-05-19T01:21:14.358Z,12.39
2023-05-19T01:22:14.367Z,12.43
2023-05-19T01:23:14.368Z,12.51
2023-05-19T01:24:14.412Z,12.56
2023-05-19T01:25:14.393Z,12.63
2023-05-19T01:26:14.436Z,12.60
2023-05-19T01:27:14.420Z,12.53
2023-05-19T01:28:14.426Z,12.54
2023-05-19T01:29:14.437Z,12.55
2023-05-19T01:30:14.448Z,12.49
2023-05-19T01:31:14.454Z,12.40
2023-05-19T01:32:14.519Z,12.41
2023-05-19T01:33:14.588Z,12.40
2023-05-19T01:34:14.526Z,12.37
2023-05-19T01:35:14.512Z,12.29
2023-05-19T01:36:14.542Z,12.25
2023-05-19T01:37:14.538Z,12.22
2023-05-19T01:38:14.584Z,12.26
2023-05-19T01:39:14.572Z,12.26
2023-05-19T01:40:14.589Z,12.19
2023-05-19T01:41:14.570Z,12.20
2023-05-19T01:42:14.621Z,12.26
2023-05-19T01:43:14.612Z,12.29
2023-05-19T01:44:14.650Z,12.29
2023-05-19T01:45:14.647Z,12.31
2023-05-19T01:46:14.673Z,12.34
2023-05-19T01:47:14.699Z,12.39
2023-05-19T01:48:14.763Z,12.40
2023-05-19T01:49:14.716Z,12.43
2023-05-19T01:50:14.716Z,12.34
2023-05-19T01:51:14.733Z,12.24
2023-05-19T01:52:14.738Z,12.19
2023-05-19T01:53:14.750Z,12.16
2023-05-19T01:54:14.781Z,12.19
2023-05-19T01:55:14.791Z,12.23
2023-05-19T01:56:14.796Z,12.27
2023-05-19T01:57:14.816Z,12.38
2023-05-19T01:58:14.843Z,12.49
2023-05-19T01:59:14.840Z,12.57
2023-05-19T02:00:14.845Z,12.65
2023-05-19T02:01:14.910Z,12.70
2023-05-19T02:02:14.920Z,12.73
2023-05-19T02:03:14.943Z,12.76
2023-05-19T02:04:15.023Z,12.80
2023-05-19T02:05:15.019Z,12.81
2023-05-19T02:06:15.060Z,12.77
2023-05-19T02:07:15.081Z,12.62
2023-05-19T02:08:15.119Z,12.45
2023-05-19T02:09:15.186Z,12.42
2023-05-19T02:10:15.232Z,12.30
2023-05-19T02:11:15.253Z,12.35
2023-05-19T02:12:15.299Z,12.41
2023-05-19T02:13:15.305Z,12.46
2023-05-19T02:14:15.334Z,12.51
2023-05-19T02:15:15.394Z,12.53
2023-05-19T02:16:15.502Z,12.56
2023-05-19T02:17:15.496Z,12.57
2023-05-19T02:18:15.556Z,12.53
2023-05-19T02:19:15.628Z,12.33
2023-05-19T02:20:15.620Z,12.09
2023-05-19T02:21:15.658Z,12.02
2023-05-19T02:22:15.683Z,12.08
2023-05-19T02:23:15.702Z,12.17
2023-05-19T02:24:15.765Z,12.22
2023-05-19T02:25:15.798Z,12.20
2023-05-19T02:26:15.816Z,12.23
2023-05-19T02:27:15.842Z,12.24
2023-05-19T02:28:16.532Z,12.27
2023-05-19T02:29:15.891Z,12.29
2023-05-19T02:30:15.935Z,12.28
2023-05-19T02:31:15.923Z,12.30
2023-05-19T02:32:15.981Z,12.27
2023-05-19T02:33:15.981Z,12.26
2023-05-19T02:34:16.031Z,12.24
2023-05-19T02:35:16.050Z,12.20
2023-05-19T02:36:16.052Z,12.15
2023-05-19T02:37:16.083Z,12.11
2023-05-19T02:38:16.067Z,12.01
2023-05-19T02:39:16.078Z,11.89
2023-05-19T02:40:16.153Z,11.87
2023-05-19T02:41:16.113Z,11.85
2023-05-19T02:42:16.163Z,11.89
2023-05-19T02:43:16.171Z,11.94
2023-05-19T02:44:16.208Z,11.96
2023-05-19T02:45:16.237Z,11.96
2023-05-19T02:46:16.306Z,11.95
2023-05-19T02:47:16.303Z,11.94
2023-05-19T02:48:16.368Z,11.82
2023-05-19T02:49:16.371Z,11.72
2023-05-19T02:50:16.410Z,11.61
2023-05-19T02:51:16.495Z,11.53
2023-05-19T02:52:16.456Z,11.42
2023-05-19T02:53:16.453Z,11.40
2023-05-19T02:54:16.471Z,11.41
2023-05-19T02:55:16.510Z,11.39
2023-05-19T02:56:16.516Z,11.46
2023-05-19T02:57:16.557Z,11.47
2023-05-19T02:58:16.608Z,11.42
2023-05-19T02:59:16.608Z,11.45
2023-05-19T03:00:16.653Z,11.55
2023-05-19T03:01:16.788Z,11.67
2023-05-19T03:02:16.714Z,11.74
2023-05-19T03:03:16.804Z,11.80
2023-05-19T03:04:16.706Z,11.88
2023-05-19T03:05:16.769Z,11.93
2023-05-19T03:06:16.751Z,11.98
2023-05-19T03:07:16.772Z,12.04
2023-05-19T03:08:16.777Z,11.93
2023-05-19T03:09:16.810Z,11.71
2023-05-19T03:10:16.865Z,11.59
2023-05-19T03:11:16.839Z,11.54
2023-05-19T03:12:16.874Z,11.59
2023-05-19T03:13:17.000Z,11.65
2023-05-19T03:14:16.918Z,11.56
2023-05-19T03:15:16.951Z,11.49
2023-05-19T03:16:16.937Z,11.39
2023-05-19T03:17:17.018Z,11.36
2023-05-19T03:18:17.015Z,11.41
2023-05-19T03:19:17.044Z,11.41
2023-05-19T03:20:16.979Z,11.43
2023-05-19T03:21:17.031Z,11.52
2023-05-19T03:22:17.057Z,11.61
2023-05-19T03:23:17.077Z,11.71
2023-05-19T03:24:17.072Z,11.77
2023-05-19T03:25:17.102Z,11.81
2023-05-19T03:26:17.212Z,11.88
2023-05-19T03:27:17.147Z,11.88
2023-05-19T03:28:17.252Z,11.84
2023-05-19T03:29:17.207Z,11.84
2023-05-19T03:30:17.198Z,11.88
2023-05-19T03:31:17.244Z,11.91
2023-05-19T03:32:17.292Z,11.95
2023-05-19T03:33:17.310Z,11.99
2023-05-19T03:34:17.989Z,12.03
2023-05-19T03:35:17.271Z,12.06
2023-05-19T03:36:17.317Z,12.05
2023-05-19T03:37:17.324Z,12.04
2023-05-19T03:38:17.372Z,12.05
2023-05-19T03:39:17.447Z,12.00
2023-05-19T03:40:17.444Z,12.00
2023-05-19T03:41:17.448Z,12.03
2023-05-19T03:42:17.506Z,12.02
2023-05-19T03:43:17.520Z,11.98
2023-05-19T03:44:17.531Z,12.01
2023-05-19T03:45:17.572Z,12.04
2023-05-19T03:46:17.694Z,12.05
2023-05-19T03:47:17.664Z,12.06
2023-05-19T03:48:20.367Z,12.03
2023-05-19T03:49:17.733Z,11.90
2023-05-19T03:50:17.720Z,11.75
2023-05-19T03:51:17.716Z,11.70
2023-05-19T03:52:17.652Z,11.62
2023-05-19T03:53:17.697Z,11.67
2023-05-19T03:54:17.677Z,11.73
2023-05-19T03:55:17.640Z,11.72
2023-05-19T03:56:17.651Z,11.46
2023-05-19T03:57:17.724Z,11.27
2023-05-19T03:58:17.615Z,11.18
2023-05-19T03:59:17.634Z,11.20
2023-05-19T04:00:17.603Z,11.15
2023-05-19T04:01:17.605Z,11.04
2023-05-19T04:02:17.606Z,11.07
2023-05-19T04:03:17.774Z,11.19
2023-05-19T04:04:17.672Z,11.31
2023-05-19T04:05:17.582Z,11.43
2023-05-19T04:06:17.604Z,11.50
2023-05-19T04:07:17.568Z,11.60
2023-05-19T04:08:17.564Z,11.71
2023-05-19T04:09:17.593Z,11.80
2023-05-19T04:10:17.573Z,11.83
2023-05-19T04:11:17.538Z,11.81
2023-05-19T04:12:17.547Z,11.66
2023-05-19T04:13:17.524Z,11.61
2023-05-19T04:14:17.513Z,11.38
2023-05-19T04:15:17.499Z,11.37
2023-05-19T04:16:17.599Z,11.29
2023-05-19T04:17:17.524Z,11.24
2023-05-19T04:18:17.516Z,11.23
2023-05-19T04:19:17.826Z,11.27
2023-05-19T04:20:17.487Z,11.23
2023-05-19T04:21:17.475Z,11.19
2023-05-19T04:22:17.511Z,11.24
2023-05-19T04:23:17.443Z,11.25
2023-05-19T04:24:17.445Z,11.28
2023-05-19T04:25:17.463Z,11.26
2023-05-19T04:26:17.421Z,11.23
2023-05-19T04:27:17.427Z,11.26
2023-05-19T04:28:17.400Z,11.26
2023-05-19T04:29:17.447Z,11.29
2023-05-19T04:30:18.583Z,11.33
2023-05-19T04:31:17.424Z,11.39
2023-05-19T04:32:17.458Z,11.46
2023-05-19T04:33:17.383Z,11.58
2023-05-19T04:34:17.383Z,11.70
2023-05-19T04:35:17.379Z,11.79
2023-05-19T04:36:17.361Z,11.70
2023-05-19T04:37:17.353Z,11.77
2023-05-19T04:38:17.378Z,11.85
2023-05-19T04:39:17.333Z,11.89
2023-05-19T04:40:17.342Z,11.98
2023-05-19T04:41:17.352Z,12.05
2023-05-19T04:42:17.309Z,12.11
2023-05-19T04:43:17.328Z,12.16
2023-05-19T04:44:17.338Z,12.18
2023-05-19T04:45:17.292Z,12.22
2023-05-19T04:46:17.329Z,12.23
2023-05-19T04:47:17.287Z,12.11
2023-05-19T04:48:17.302Z,12.16
2023-05-19T04:49:17.371Z,12.19
2023-05-19T04:50:17.373Z,12.24
2023-05-19T04:51:17.379Z,12.28
2023-05-19T04:52:17.425Z,12.26
2023-05-19T04:53:17.458Z,12.26
2023-05-19T04:54:17.501Z,12.19
2023-05-19T04:55:17.533Z,12.26
2023-05-19T04:56:17.517Z,12.33
2023-05-19T04:57:17.513Z,12.28
2023-05-19T04:58:17.569Z,12.29
2023-05-19T04:59:17.567Z,12.28
2023-05-19T05:00:17.605Z,12.35
2023-05-19T05:01:17.764Z,12.39
2023-05-19T05:02:17.708Z,12.37
2023-05-19T05:03:17.883Z,12.40
2023-05-19T05:04:17.786Z,12.45
2023-05-19T05:05:17.810Z,12.43
2023-05-19T05:06:17.804Z,12.28
2023-05-19T05:07:17.816Z,12.29
2023-05-19T05:08:17.881Z,12.23
2023-05-19T05:09:17.873Z,12.27
2023-05-19T05:10:17.897Z,12.29
2023-05-19T05:11:18.023Z,12.33
2023-05-19T05:12:18.021Z,12.40
2023-05-19T05:13:18.063Z,12.42
2023-05-19T05:14:18.068Z,12.32
2023-05-19T05:15:18.093Z,12.35
2023-05-19T05:16:18.116Z,12.24
2023-05-19T05:17:18.102Z,12.30
2023-05-19T05:18:18.099Z,12.38
2023-05-19T05:19:18.143Z,12.45
2023-05-19T05:20:18.197Z,12.47
2023-05-19T05:21:18.220Z,12.39
2023-05-19T05:22:18.238Z,12.22
2023-05-19T05:23:18.244Z,12.20
2023-05-19T05:24:18.243Z,12.17
2023-05-19T05:25:18.314Z,12.24
2023-05-19T05:26:18.360Z,12.30
2023-05-19T05:27:18.344Z,12.36
2023-05-19T05:28:18.362Z,12.43
2023-05-19T05:29:18.386Z,12.38
2023-05-19T05:30:18.394Z,12.39
2023-05-19T05:31:18.469Z,12.43
2023-05-19T05:32:18.547Z,12.49
2023-05-19T05:33:18.711Z,12.43
2023-05-19T05:34:18.559Z,12.36
2023-05-19T05:35:18.574Z,12.36
2023-05-19T05:36:18.534Z,12.37
2023-05-19T05:37:18.575Z,12.23
2023-05-19T05:38:18.649Z,12.13
2023-05-19T05:39:18.649Z,12.23
2023-05-19T05:40:18.657Z,12.34
2023-05-19T05:41:18.715Z,12.44
2023-05-19T05:42:18.770Z,12.55
2023-05-19T05:43:18.757Z,12.60
2023-05-19T05:44:18.766Z,12.51
2023-05-19T05:45:18.824Z,12.53
2023-05-19T05:46:18.892Z,12.57
2023-05-19T05:47:18.899Z,12.63
2023-05-19T05:48:18.913Z,12.71
2023-05-19T05:49:18.970Z,12.79
2023-05-19T05:50:19.023Z,12.81
2023-05-19T05:51:19.052Z,12.70
2023-05-19T05:52:19.020Z,12.76
2023-05-19T05:53:19.046Z,12.88
2023-05-19T05:54:19.104Z,12.98
2023-05-19T05:55:19.113Z,13.06
2023-05-19T05:56:19.164Z,13.14
2023-05-19T05:57:19.218Z,13.17
2023-05-19T05:58:19.226Z,13.21
2023-05-19T05:59:19.274Z,13.26
2023-05-19T06:00:19.354Z,13.34
2023-05-19T06:01:19.389Z,13.37
2023-05-19T06:02:19.440Z,13.33
2023-05-19T06:03:19.541Z,13.22
2023-05-19T06:04:19.526Z,13.10
2023-05-19T06:05:19.585Z,13.11
2023-05-19T06:06:19.548Z,13.16
2023-05-19T06:07:19.602Z,13.06
2023-05-19T06:08:19.596Z,13.12
2023-05-19T06:09:19.612Z,13.12
2023-05-19T06:10:19.616Z,13.19
2023-05-19T06:11:19.644Z,13.15
2023-05-19T06:12:19.723Z,13.18
2023-05-19T06:13:19.793Z,13.29
2023-05-19T06:14:19.848Z,13.53
2023-05-19T06:15:19.847Z,13.49
2023-05-19T06:16:19.878Z,13.59
2023-05-19T06:17:19.921Z,13.64
2023-05-19T06:18:19.982Z,13.70
2023-05-19T06:19:20.047Z,13.78
2023-05-19T06:20:20.039Z,13.99
2023-05-19T06:21:20.026Z,14.08
2023-05-19T06:22:20.066Z,14.16
2023-05-19T06:23:20.107Z,14.14
2023-05-19T06:24:20.164Z,13.92
2023-05-19T06:25:20.189Z,13.80
2023-05-19T06:26:20.214Z,13.64
2023-05-19T06:27:20.307Z,13.68
2023-05-19T06:28:20.312Z,13.83
2023-05-19T06:29:20.388Z,13.96
2023-05-19T06:30:20.407Z,14.05
2023-05-19T06:31:20.479Z,14.09
2023-05-19T06:32:20.491Z,14.15
2023-05-19T06:33:20.519Z,13.97
2023-05-19T06:34:20.559Z,13.84
2023-05-19T06:35:20.534Z,13.85
2023-05-19T06:36:20.593Z,13.99
2023-05-19T06:37:20.616Z,14.00
2023-05-19T06:38:20.595Z,14.09
2023-05-19T06:39:20.670Z,14.15
2023-05-19T06:40:20.727Z,14.03
2023-05-19T06:41:20.767Z,14.16
2023-05-19T06:42:20.856Z,14.25
2023-05-19T06:43:20.836Z,14.33
2023-05-19T06:44:21.228Z,14.42
2023-05-19T06:45:20.900Z,14.50
2023-05-19T06:46:20.996Z,14.55
2023-05-19T06:47:20.972Z,14.52
2023-05-19T06:48:20.970Z,14.57
2023-05-19T06:49:21.016Z,14.76
2023-05-19T06:50:21.038Z,14.94
2023-05-19T06:51:21.100Z,15.07
2023-05-19T06:52:21.125Z,15.13
2023-05-19T06:53:21.156Z,15.28
2023-05-19T06:54:21.154Z,15.39
2023-05-19T06:55:21.204Z,15.55
2023-05-19T06:56:21.273Z,15.69
2023-05-19T06:57:21.259Z,15.81
2023-05-19T06:58:21.298Z,15.89
2023-05-19T06:59:21.300Z,15.79
2023-05-19T07:00:23.091Z,15.62
2023-05-19T07:01:21.394Z,15.50
2023-05-19T07:02:21.381Z,15.55
2023-05-19T07:03:21.422Z,15.30
2023-05-19T07:04:21.333Z,15.32
2023-05-19T07:05:21.332Z,15.19
2023-05-19T07:06:21.333Z,14.87
2023-05-19T07:07:21.353Z,14.60
2023-05-19T07:08:21.328Z,14.73
2023-05-19T07:09:21.338Z,15.00
2023-05-19T07:10:21.275Z,15.22
2023-05-19T07:11:21.290Z,15.33
2023-05-19T07:12:21.321Z,15.46
2023-05-19T07:13:21.291Z,15.52
2023-05-19T07:14:21.262Z,15.58
2023-05-19T07:15:21.291Z,15.64
2023-05-19T07:16:21.284Z,15.56
2023-05-19T07:17:21.259Z,15.31
2023-05-19T07:18:21.269Z,15.35
2023-05-19T07:19:21.400Z,15.48
2023-05-19T07:20:21.234Z,15.59
2023-05-19T07:21:21.237Z,15.73
2023-05-19T07:22:21.216Z,15.79
2023-05-19T07:23:21.234Z,15.61
2023-05-19T07:24:21.216Z,15.64
2023-05-19T07:25:21.203Z,15.84
2023-05-19T07:26:21.184Z,16.04
2023-05-19T07:27:21.196Z,15.99
2023-05-19T07:28:21.205Z,16.07
2023-05-19T07:29:21.179Z,15.70
2023-05-19T07:30:21.186Z,15.69
2023-05-19T07:31:21.204Z,15.97
2023-05-19T07:32:21.301Z,16.15
2023-05-19T07:33:21.159Z,16.00
2023-05-19T07:34:21.152Z,15.92
2023-05-19T07:35:21.178Z,16.13
2023-05-19T07:36:21.141Z,16.29
2023-05-19T07:37:21.133Z,16.36
2023-05-19T07:38:21.137Z,16.43
2023-05-19T07:39:21.209Z,16.55
2023-05-19T07:40:21.123Z,16.60
2023-05-19T07:41:21.094Z,16.57
2023-05-19T07:42:21.119Z,16.12
2023-05-19T07:43:21.078Z,16.04
2023-05-19T07:44:21.082Z,16.20
2023-05-19T07:45:21.080Z,16.43
2023-05-19T07:46:21.129Z,16.69
2023-05-19T07:48:13.668Z,16.62
2023-05-19T07:49:13.584Z,16.61
2023-05-19T07:50:13.611Z,16.45
2023-05-19T07:51:13.585Z,16.58
2023-05-19T07:52:13.549Z,16.85
2023-05-19T07:53:13.557Z,16.99
2023-05-19T07:54:13.561Z,17.10
2023-05-19T07:55:13.549Z,17.25
2023-05-19T07:56:13.552Z,17.39
2023-05-19T07:57:13.539Z,17.38
2023-05-19T07:58:13.518Z,17.48
2023-05-19T07:59:13.534Z,17.56
2023-05-19T08:00:13.531Z,17.69
2023-05-19T08:01:13.517Z,17.82
2023-05-19T08:02:13.503Z,18.05
2023-05-19T08:03:13.800Z,18.24
2023-05-19T08:04:13.590Z,18.26
2023-05-19T08:05:13.536Z,18.11
2023-05-19T08:06:13.482Z,17.88
2023-05-19T08:07:13.439Z,17.78
2023-05-19T08:08:13.451Z,17.65
2023-05-19T08:09:13.455Z,17.16
2023-05-19T08:10:13.452Z,17.05
2023-05-19T08:11:13.440Z,17.14
2023-05-19T08:12:13.426Z,17.21
2023-05-19T08:13:13.434Z,17.29
2023-05-19T08:14:13.437Z,17.36
2023-05-19T08:15:13.381Z,17.32
2023-05-19T08:16:13.442Z,17.42
2023-05-19T08:17:13.368Z,17.49
2023-05-19T08:18:13.509Z,17.58
2023-05-19T08:19:13.499Z,17.58
2023-05-19T08:20:13.426Z,17.59
2023-05-19T08:21:13.517Z,17.70
2023-05-19T08:22:13.616Z,17.49
2023-05-19T08:23:13.590Z,17.48
2023-05-19T08:24:13.580Z,17.59
2023-05-19T08:25:13.654Z,17.78
2023-05-19T08:26:14.270Z,17.97
2023-05-19T08:27:13.705Z,18.15
2023-05-19T08:28:13.733Z,18.21
2023-05-19T08:29:13.788Z,18.01
2023-05-19T08:30:13.799Z,18.08
2023-05-19T08:31:13.868Z,18.36
2023-05-19T08:32:13.838Z,18.68
2023-05-19T08:33:13.906Z,18.96
2023-05-19T08:34:13.902Z,18.90
2023-05-19T08:35:13.910Z,19.01
2023-05-19T08:36:13.920Z,19.10
2023-05-19T08:37:13.973Z,19.09
2023-05-19T08:38:14.042Z,19.02
2023-05-19T08:39:14.066Z,19.03
2023-05-19T08:40:14.115Z,19.10
2023-05-19T08:41:14.136Z,19.16
2023-05-19T08:42:14.155Z,19.19
2023-05-19T08:43:14.217Z,19.29
2023-05-19T08:44:14.996Z,19.37
2023-05-19T08:45:14.242Z,19.42
2023-05-19T08:46:14.262Z,19.37
2023-05-19T08:47:14.305Z,19.44
2023-05-19T08:48:14.370Z,19.56
2023-05-19T08:49:14.363Z,19.72
2023-05-19T08:50:14.368Z,19.83
2023-05-19T08:51:14.416Z,19.88
2023-05-19T08:52:14.415Z,19.90
2023-05-19T08:54:15.464Z,19.99
2023-05-19T08:55:14.467Z,19.94
2023-05-19T08:56:14.450Z,19.60
2023-05-19T08:57:14.480Z,19.44
2023-05-19T08:58:14.428Z,19.30
2023-05-19T08:59:14.414Z,19.36
2023-05-19T09:00:14.434Z,19.11
2023-05-19T09:01:14.498Z,18.87
2023-05-19T09:02:14.398Z,19.10
2023-05-19T09:04:14.479Z,19.42
2023-05-19T09:05:14.414Z,19.53
2023-05-19T09:06:14.427Z,19.45
2023-05-19T09:07:14.365Z,19.03
2023-05-19T09:08:14.382Z,18.73
2023-05-19T09:09:14.334Z,18.75
2023-05-19T09:10:14.370Z,18.72
2023-05-19T09:11:14.356Z,18.79
2023-05-19T09:12:14.352Z,18.85
2023-05-19T09:13:14.359Z,19.03
2023-05-19T09:14:14.328Z,19.27
2023-05-19T09:15:14.323Z,19.53
2023-05-19T09:16:14.365Z,19.72
2023-05-19T09:17:14.300Z,19.78
2023-05-19T09:18:14.317Z,19.87
2023-05-19T09:19:14.323Z,19.89
2023-05-19T09:20:14.313Z,20.04
2023-05-19T09:21:14.307Z,19.82
2023-05-19T09:22:14.297Z,19.48
2023-05-19T09:23:14.301Z,19.51
2023-05-19T09:24:14.293Z,19.23
2023-05-19T09:25:14.234Z,18.88
2023-05-19T09:26:14.294Z,19.07
2023-05-19T09:27:14.268Z,19.23
2023-05-19T09:28:14.241Z,19.37
2023-05-19T09:29:14.290Z,19.51
2023-05-19T09:30:14.263Z,19.70
2023-05-19T09:31:14.211Z,19.88
2023-05-19T09:32:14.255Z,19.99
2023-05-19T09:33:14.309Z,20.23
2023-05-19T09:34:14.196Z,20.10
2023-05-19T09:35:14.214Z,20.19
2023-05-19T09:36:14.194Z,20.39
2023-05-19T09:37:14.184Z,20.65
2023-05-19T09:38:14.192Z,20.88
2023-05-19T09:39:14.164Z,20.96
2023-05-19T09:40:14.177Z,21.15
2023-05-19T09:41:14.195Z,21.26
2023-05-19T09:42:14.145Z,21.31
2023-05-19T09:43:14.140Z,21.39
2023-05-19T09:44:14.166Z,21.35
2023-05-19T09:45:14.141Z,21.24
2023-05-19T09:46:14.869Z,21.14
2023-05-19T09:47:14.113Z,20.99
2023-05-19T09:48:14.115Z,21.01
2023-05-19T09:49:14.150Z,20.98
2023-05-19T09:50:14.146Z,21.04
2023-05-19T09:51:14.087Z,21.09
2023-05-19T09:52:14.120Z,21.28
2023-05-19T09:53:14.112Z,21.49
2023-05-19T09:54:14.107Z,21.73
2023-05-19T09:55:14.063Z,21.95
2023-05-19T09:56:14.078Z,22.23
2023-05-19T09:57:14.078Z,22.48
2023-05-19T09:58:14.076Z,22.30
2023-05-19T09:59:14.049Z,22.49
2023-05-19T10:00:14.106Z,22.52
2023-05-19T10:01:14.156Z,22.75
2023-05-19T10:02:14.166Z,22.95
2023-05-19T10:03:14.231Z,23.05
2023-05-19T10:04:14.226Z,22.60
2023-05-19T10:05:14.386Z,22.35
2023-05-19T10:06:14.265Z,22.40
2023-05-19T10:07:14.348Z,22.21
2023-05-19T10:08:14.338Z,22.15
2023-05-19T10:09:14.380Z,22.02
2023-05-19T10:10:14.417Z,21.95
2023-05-19T10:11:14.444Z,22.20
2023-05-19T10:12:14.479Z,22.42
2023-05-19T10:13:14.496Z,22.66
2023-05-19T10:14:14.487Z,22.93
2023-05-19T10:15:14.536Z,23.13
2023-05-19T10:16:14.609Z,23.36
2023-05-19T10:17:14.572Z,23.63
2023-05-19T10:18:14.671Z,23.66
2023-05-19T10:19:14.761Z,23.10
2023-05-19T10:20:14.705Z,22.93
2023-05-19T10:21:14.741Z,22.46
2023-05-19T10:22:14.766Z,22.53
2023-05-19T10:23:14.788Z,22.81
2023-05-19T10:24:14.862Z,22.87
2023-05-19T10:25:14.867Z,23.13
2023-05-19T10:26:14.947Z,23.31
2023-05-19T10:27:14.951Z,23.55
2023-05-19T10:28:15.018Z,23.76
2023-05-19T10:29:15.029Z,23.93
2023-05-19T10:30:16.342Z,23.65
2023-05-19T10:31:15.078Z,23.71
2023-05-19T10:32:15.092Z,23.67
2023-05-19T10:33:15.123Z,23.93
2023-05-19T10:34:15.143Z,24.11
2023-05-19T10:35:15.141Z,23.86
2023-05-19T10:36:15.177Z,23.54
2023-05-19T10:37:15.200Z,23.20
2023-05-19T10:38:15.264Z,23.37
2023-05-19T10:39:15.278Z,23.01
2023-05-19T10:40:15.300Z,23.33
2023-05-19T10:41:15.305Z,23.47
2023-05-19T10:42:15.326Z,23.28
2023-05-19T10:43:15.346Z,23.17
2023-05-19T10:44:15.394Z,23.32
2023-05-19T10:45:15.396Z,23.68
2023-05-19T10:46:15.451Z,23.80
2023-05-19T10:47:15.521Z,23.93
2023-05-19T10:48:15.525Z,23.63
2023-05-19T10:49:15.538Z,23.40
2023-05-19T10:50:15.759Z,23.26
2023-05-19T10:51:15.643Z,23.52
2023-05-19T10:52:15.661Z,23.40
2023-05-19T10:53:15.702Z,22.89
2023-05-19T10:54:15.704Z,22.78
2023-05-19T10:55:15.790Z,22.85
2023-05-19T10:56:15.783Z,22.94
2023-05-19T10:57:15.846Z,22.95
2023-05-19T10:58:15.896Z,23.12
2023-05-19T10:59:15.907Z,23.16
2023-05-19T11:00:15.941Z,23.51
2023-05-19T11:01:16.040Z,23.44
2023-05-19T11:02:16.099Z,23.57
2023-05-19T11:03:16.123Z,23.81
2023-05-19T11:04:16.126Z,24.04
2023-05-19T11:05:16.103Z,23.77
2023-05-19T11:06:16.153Z,24.15
2023-05-19T11:07:16.168Z,24.32
2023-05-19T11:08:16.200Z,24.22
2023-05-19T11:09:16.213Z,24.22
2023-05-19T11:10:16.283Z,24.03
2023-05-19T11:11:16.318Z,23.93
2023-05-19T11:12:16.333Z,23.79
2023-05-19T11:13:16.359Z,23.86
2023-05-19T11:14:16.417Z,23.87
2023-05-19T11:15:16.644Z,24.11
2023-05-19T11:16:16.431Z,24.36
2023-05-19T11:17:16.479Z,24.32
2023-05-19T11:18:16.518Z,24.57
2023-05-19T11:19:16.547Z,24.79
2023-05-19T11:20:16.601Z,24.80
2023-05-19T11:21:16.693Z,25.06
2023-05-19T11:22:16.644Z,25.31
2023-05-19T11:23:16.729Z,25.58
2023-05-19T11:24:16.737Z,25.79
2023-05-19T11:25:16.739Z,25.95
2023-05-19T11:26:16.791Z,25.98
2023-05-19T11:27:16.779Z,25.64
2023-05-19T11:28:16.839Z,25.77
2023-05-19T11:29:16.858Z,25.86
2023-05-19T11:30:16.903Z,25.95
2023-05-19T11:31:16.940Z,26.02
2023-05-19T11:32:16.971Z,25.92
2023-05-19T11:33:17.001Z,26.08
2023-05-19T11:34:16.993Z,26.21
2023-05-19T11:35:17.038Z,26.25
2023-05-19T11:36:17.064Z,25.74
2023-05-19T11:37:17.079Z,25.90
2023-05-19T11:38:17.134Z,26.05
2023-05-19T11:39:17.136Z,26.17
2023-05-19T11:40:17.201Z,26.11
2023-05-19T11:41:18.906Z,26.33
2023-05-19T11:42:17.171Z,26.45
2023-05-19T11:43:17.241Z,25.62
2023-05-19T11:44:17.197Z,25.10
2023-05-19T11:45:17.157Z,25.24
2023-05-19T11:46:17.167Z,25.30
2023-05-19T11:47:17.181Z,25.23
2023-05-19T11:48:17.389Z,25.63
2023-05-19T11:49:17.150Z,25.53
2023-05-19T11:50:17.169Z,25.71
2023-05-19T11:51:17.174Z,25.95
2023-05-19T11:52:17.118Z,26.10
2023-05-19T11:53:17.108Z,25.92
2023-05-19T11:54:17.118Z,25.97
2023-05-19T11:55:17.103Z,26.14
2023-05-19T11:56:17.100Z,26.02
2023-05-19T11:57:17.205Z,26.09
2023-05-19T11:58:17.405Z,26.18
2023-05-19T11:59:17.077Z,26.16
2023-05-19T12:00:17.057Z,25.81
2023-05-19T12:01:17.087Z,25.49
2023-05-19T12:02:17.113Z,25.37
2023-05-19T12:03:17.191Z,25.09
2023-05-19T12:04:17.056Z,25.05
2023-05-19T12:05:17.134Z,24.75
2023-05-19T12:06:17.086Z,24.34
2023-05-19T12:07:17.009Z,24.37
2023-05-19T12:08:17.020Z,24.55
2023-05-19T12:09:17.039Z,24.81
2023-05-19T12:10:17.028Z,24.97
2023-05-19T12:11:18.127Z,25.08
2023-05-19T12:12:17.133Z,24.84
2023-05-19T12:13:16.999Z,24.76
2023-05-19T12:14:17.016Z,25.05
2023-05-19T12:15:16.970Z,25.12
2023-05-19T12:16:17.068Z,25.08
2023-05-19T12:17:17.001Z,24.94
2023-05-19T12:18:16.947Z,24.84
2023-05-19T12:19:16.984Z,24.63
2023-05-19T12:20:16.985Z,24.89
2023-05-19T12:21:16.957Z,25.09
2023-05-19T12:22:16.959Z,25.05
2023-05-19T12:23:16.929Z,25.08
2023-05-19T12:24:16.923Z,24.96
2023-05-19T12:25:16.937Z,24.93
2023-05-19T12:26:16.904Z,25.01
2023-05-19T12:27:16.917Z,24.88
2023-05-19T12:28:16.923Z,24.75
2023-05-19T12:29:16.890Z,24.30
2023-05-19T12:30:16.968Z,24.33
2023-05-19T12:31:17.012Z,24.42
2023-05-19T12:32:17.015Z,24.48
2023-05-19T12:33:17.036Z,24.42
2023-05-19T12:34:17.065Z,24.32
2023-05-19T12:35:17.097Z,24.29
2023-05-19T12:36:17.138Z,24.17
2023-05-19T12:37:17.168Z,24.23
2023-05-19T12:38:17.176Z,24.23
2023-05-19T12:39:18.046Z,24.17
2023-05-19T12:40:17.308Z,24.21
2023-05-19T12:41:17.301Z,24.35
2023-05-19T12:42:17.346Z,24.18
2023-05-19T12:43:17.356Z,23.99
2023-05-19T12:44:17.414Z,23.90
2023-05-19T12:45:17.454Z,24.04
2023-05-19T12:46:17.564Z,24.12
2023-05-19T12:47:17.522Z,24.28
2023-05-19T12:49:17.650Z,24.30
2023-05-19T12:50:17.679Z,24.39
2023-05-19T12:51:17.705Z,24.49
2023-05-19T12:52:17.760Z,24.34
2023-05-19T12:53:17.795Z,24.43
2023-05-19T12:54:17.855Z,24.56
2023-05-19T12:55:17.857Z,24.48
2023-05-19T12:56:17.916Z,24.47